createdAt,value
2019-01-29T00:02:45.199Z,13.70
2019-01-29T00:06:49.878Z,9.33
2019-01-29T00:10:54.561Z,9.70
2019-01-29T00:14:59.241Z,8.50
2019-01-29T00:19:03.921Z,10.60
2019-01-29T00:23:09.559Z,6.87
2019-01-29T00:27:14.237Z,8.73
2019-01-29T00:31:18.924Z,13.33
2019-01-29T00:35:23.607Z,10.70
2019-01-29T00:39:28.296Z,9.47
2019-01-29T00:43:32.960Z,4.33
2019-01-29T00:47:37.641Z,9.20
2019-01-29T00:51:42.310Z,6.07
2019-01-29T00:55:46.989Z,4.93
2019-01-29T00:59:52.510Z,4.00
2019-01-29T01:03:57.222Z,5.70
2019-01-29T01:08:01.901Z,5.07
2019-01-29T01:12:06.585Z,7.17
2019-01-29T01:16:11.262Z,6.80
2019-01-29T01:20:17.674Z,6.93
2019-01-29T01:24:22.349Z,6.87
2019-01-29T01:28:27.031Z,3.67
2019-01-29T01:32:31.714Z,6.90
2019-01-29T01:36:36.386Z,3.90
2019-01-29T01:40:41.074Z,5.00
2019-01-29T01:44:45.747Z,7.47
2019-01-29T01:48:50.427Z,6.43
2019-01-29T01:52:59.268Z,8.97
2019-01-29T01:57:01.549Z,4.30
2019-01-29T02:01:06.233Z,5.50
2019-01-29T02:05:10.905Z,5.97
2019-01-29T02:09:15.587Z,4.97
2019-01-29T02:13:20.258Z,7.77
2019-01-29T02:17:24.939Z,7.37
2019-01-29T02:21:29.618Z,5.67
2019-01-29T02:25:34.286Z,5.83
2019-01-29T02:29:38.982Z,4.03
2019-01-29T02:33:43.648Z,4.40
2019-01-29T02:37:48.324Z,3.03
2019-01-29T02:41:53.001Z,5.47
2019-01-29T02:45:57.666Z,3.00
2019-01-29T02:50:02.362Z,3.57
2019-01-29T02:54:07.027Z,2.70
2019-01-29T02:58:11.708Z,8.53
2019-01-29T03:02:17.459Z,4.53
2019-01-29T03:06:22.128Z,6.23
2019-01-29T03:10:27.245Z,6.47
2019-01-29T03:14:31.961Z,7.57
2019-01-29T03:18:36.602Z,8.23
2019-01-29T03:22:41.284Z,9.00
2019-01-29T03:26:45.953Z,7.40
2019-01-29T03:30:50.635Z,6.83
2019-01-29T03:34:55.310Z,4.53
2019-01-29T03:38:59.984Z,7.67
2019-01-29T03:43:04.650Z,7.93
2019-01-29T03:47:09.330Z,5.37
2019-01-29T03:51:14.009Z,4.33
2019-01-29T03:55:18.688Z,3.40
2019-01-29T03:59:23.366Z,1.33
2019-01-29T04:03:28.048Z,7.43
2019-01-29T04:07:32.717Z,4.00
2019-01-29T04:11:37.391Z,1.67
2019-01-29T04:15:42.065Z,5.37
2019-01-29T04:19:46.745Z,4.23
2019-01-29T04:23:51.423Z,4.43
2019-01-29T04:27:56.099Z,4.77
2019-01-29T04:32:00.870Z,3.60
2019-01-29T04:36:05.527Z,7.37
2019-01-29T04:40:12.643Z,5.60
2019-01-29T04:44:17.339Z,4.43
2019-01-29T04:48:22.006Z,11.03
2019-01-29T04:52:26.686Z,7.17
2019-01-29T04:56:31.362Z,8.40
2019-01-29T05:00:36.045Z,7.13
2019-01-29T05:04:40.737Z,2.70
2019-01-29T05:08:45.394Z,5.40
2019-01-29T05:12:50.077Z,5.47
2019-01-29T05:16:54.750Z,5.93
2019-01-29T05:20:59.440Z,6.10
2019-01-29T05:25:05.847Z,12.03
2019-01-29T05:29:10.538Z,4.37
2019-01-29T05:33:15.212Z,9.60
2019-01-29T05:37:19.904Z,7.20
2019-01-29T05:41:24.572Z,5.20
2019-01-29T05:45:29.241Z,9.07
2019-01-29T05:49:33.922Z,7.73
2019-01-29T05:53:38.606Z,6.20
2019-01-29T05:57:43.291Z,5.37
2019-01-29T06:01:47.971Z,8.83
2019-01-29T06:05:52.639Z,10.17
2019-01-29T06:09:57.325Z,10.07
2019-01-29T06:14:02.006Z,7.77
2019-01-29T06:18:06.685Z,6.90
2019-01-29T06:22:11.367Z,8.23
2019-01-29T06:26:16.047Z,7.70
2019-01-29T06:30:23.320Z,5.63
2019-01-29T06:34:28.004Z,7.93
2019-01-29T06:38:32.679Z,4.77
2019-01-29T06:42:37.341Z,9.80
2019-01-29T06:46:42.029Z,7.57
2019-01-29T06:50:46.698Z,2.90
2019-01-29T06:54:51.379Z,9.27
2019-01-29T06:58:56.054Z,6.63
2019-01-29T07:03:01.261Z,6.53
2019-01-29T07:07:05.943Z,9.33
2019-01-29T07:11:10.623Z,10.30
2019-01-29T07:15:40.760Z,7.60
2019-01-29T07:19:45.445Z,15.40
2019-01-29T07:23:50.126Z,10.33
2019-01-29T07:27:54.802Z,11.30
2019-01-29T07:31:59.481Z,6.93
2019-01-29T07:36:04.169Z,10.60
2019-01-29T07:40:10.239Z,14.90
2019-01-29T07:44:14.891Z,7.30
2019-01-29T07:48:19.573Z,12.93
2019-01-29T07:52:24.260Z,9.37
2019-01-29T07:56:28.940Z,9.47
2019-01-29T08:00:33.615Z,6.00
2019-01-29T08:04:38.306Z,13.43
2019-01-29T08:08:42.980Z,11.57
2019-01-29T08:12:47.668Z,10.23
2019-01-29T08:16:53.327Z,15.43
2019-01-29T08:20:58.014Z,11.53
2019-01-29T08:25:02.721Z,9.03
2019-01-29T08:29:07.387Z,9.33
2019-01-29T08:33:12.065Z,6.40
2019-01-29T08:37:16.741Z,5.97
2019-01-29T08:41:21.419Z,11.07
2019-01-29T08:45:26.091Z,7.80
2019-01-29T08:49:30.763Z,7.47
2019-01-29T08:53:35.453Z,7.90
2019-01-29T08:57:40.120Z,7.73
2019-01-29T09:01:44.839Z,7.73
2019-01-29T09:05:49.523Z,6.50
2019-01-29T09:09:54.197Z,7.63
2019-01-29T09:13:58.881Z,3.10
2019-01-29T09:18:03.570Z,6.60
2019-01-29T09:22:08.287Z,5.30
2019-01-29T09:26:12.968Z,12.67
2019-01-29T09:30:19.080Z,9.30
2019-01-29T09:34:23.775Z,11.63
2019-01-29T09:38:28.467Z,10.23
2019-01-29T09:42:33.146Z,8.80
2019-01-29T09:46:37.833Z,5.37
2019-01-29T09:50:42.494Z,6.57
2019-01-29T09:54:47.240Z,8.40
2019-01-29T09:58:51.849Z,7.87
2019-01-29T10:02:56.532Z,6.97
2019-01-29T10:07:01.213Z,7.23
2019-01-29T10:11:05.882Z,9.20
2019-01-29T10:15:17.102Z,5.90
2019-01-29T10:19:21.788Z,10.73
2019-01-29T10:23:26.469Z,6.93
2019-01-29T10:27:31.147Z,4.60
2019-01-29T10:31:35.819Z,4.10
2019-01-29T10:35:40.508Z,4.17
2019-01-29T10:39:45.181Z,8.70
2019-01-29T10:43:49.851Z,7.53
2019-01-29T10:47:54.534Z,4.87
2019-01-29T10:51:59.461Z,6.20
2019-01-29T10:56:04.141Z,4.30
2019-01-29T11:00:14.717Z,6.77
2019-01-29T11:04:19.401Z,10.73
2019-01-29T11:08:24.084Z,8.80
2019-01-29T11:12:28.749Z,7.60
2019-01-29T11:16:33.438Z,10.33
2019-01-29T11:20:38.120Z,6.20
2019-01-29T11:24:42.793Z,5.50
2019-01-29T11:28:47.476Z,6.07
2019-01-29T11:32:52.142Z,8.43
2019-01-29T11:36:56.831Z,12.97
2019-01-29T11:41:01.513Z,8.00
2019-01-29T11:45:09.449Z,11.20
2019-01-29T11:49:14.143Z,5.40
2019-01-29T11:53:18.812Z,9.37
2019-01-29T11:57:23.493Z,12.03
2019-01-29T12:01:28.176Z,10.60
2019-01-29T12:05:32.856Z,8.30
2019-01-29T12:09:37.537Z,8.67
2019-01-29T12:13:42.206Z,9.00
2019-01-29T12:17:47.954Z,9.23
2019-01-29T12:21:52.634Z,7.13
2019-01-29T12:25:57.391Z,5.10
2019-01-29T12:30:02.066Z,5.20
2019-01-29T12:34:06.738Z,7.33
2019-01-29T12:38:12.485Z,9.80
2019-01-29T12:42:17.172Z,9.50
2019-01-29T12:46:21.845Z,7.67
2019-01-29T12:50:28.262Z,16.97
2019-01-29T12:54:33.904Z,9.93
2019-01-29T12:58:38.589Z,12.30
2019-01-29T13:02:43.266Z,8.80
2019-01-29T13:06:47.950Z,10.17
2019-01-29T13:10:52.621Z,9.23
2019-01-29T13:14:57.307Z,12.20
2019-01-29T13:19:01.988Z,4.00
2019-01-29T13:23:06.668Z,3.67
2019-01-29T13:27:11.349Z,4.53
2019-01-29T13:31:16.013Z,4.73
2019-01-29T13:35:21.041Z,8.10
2019-01-29T13:39:25.718Z,12.37
2019-01-29T13:43:30.403Z,10.10
2019-01-29T13:47:35.087Z,8.83
2019-01-29T13:51:39.754Z,10.37
2019-01-29T13:55:44.437Z,12.63
2019-01-29T13:59:49.124Z,12.87
2019-01-29T14:03:53.812Z,14.87
2019-01-29T14:07:58.489Z,7.73
2019-01-29T14:12:03.230Z,10.60
2019-01-29T14:16:08.011Z,16.70
2019-01-29T14:20:20.153Z,9.63
2019-01-29T14:24:24.826Z,7.03
2019-01-29T14:28:29.502Z,8.73
2019-01-29T14:32:34.189Z,11.00
2019-01-29T14:36:38.864Z,10.07
2019-01-29T14:40:43.546Z,9.00
2019-01-29T14:44:48.228Z,14.10
2019-01-29T14:48:52.918Z,14.20
2019-01-29T14:52:57.591Z,14.77
2019-01-29T14:57:02.267Z,13.23
2019-01-29T15:01:06.958Z,14.33
2019-01-29T15:05:11.644Z,15.03
2019-01-29T15:09:17.572Z,14.70
2019-01-29T15:13:22.389Z,13.07
2019-01-29T15:17:28.716Z,14.77
2019-01-29T15:21:37.945Z,13.23
2019-01-29T15:25:39.787Z,18.87
2019-01-29T15:29:44.473Z,15.17
2019-01-29T15:33:49.153Z,19.90
2019-01-29T15:37:54.788Z,21.33
2019-01-29T15:41:59.529Z,16.67
2019-01-29T15:46:04.216Z,14.13
2019-01-29T15:50:12.442Z,13.33
2019-01-29T15:54:17.110Z,16.70
2019-01-29T15:58:21.799Z,18.93
2019-01-29T16:02:26.486Z,15.03
2019-01-29T16:06:31.167Z,16.83
2019-01-29T16:10:40.816Z,13.30
2019-01-29T16:14:46.555Z,17.37
2019-01-29T16:18:51.244Z,14.47
2019-01-29T16:22:56.009Z,14.30
2019-01-29T16:27:06.756Z,21.27
2019-01-29T16:31:07.077Z,17.27
2019-01-29T16:35:15.102Z,12.70
2019-01-29T16:39:19.781Z,11.27
2019-01-29T16:43:24.469Z,14.07
2019-01-29T16:47:29.155Z,13.33
2019-01-29T16:51:41.965Z,13.73
2019-01-29T16:55:40.208Z,14.47
2019-01-29T16:59:44.893Z,15.00
2019-01-29T17:03:50.557Z,14.47
2019-01-29T17:07:55.268Z,15.00
2019-01-29T17:11:59.948Z,15.63
2019-01-29T17:16:04.620Z,17.97
2019-01-29T17:20:24.086Z,12.40
2019-01-29T17:24:28.796Z,14.13
2019-01-29T17:28:33.486Z,13.57
2019-01-29T17:32:38.174Z,20.43
2019-01-29T17:36:42.847Z,16.23
2019-01-29T17:40:47.534Z,12.63
2019-01-29T17:44:52.221Z,13.03
2019-01-29T17:48:56.906Z,14.97
2019-01-29T17:53:01.586Z,19.37
2019-01-29T17:57:07.239Z,20.17
2019-01-29T18:01:12.006Z,23.63
2019-01-29T18:05:16.692Z,18.53
2019-01-29T18:09:21.388Z,21.47
2019-01-29T18:13:26.093Z,20.10
2019-01-29T18:17:30.773Z,23.77
2019-01-29T18:21:35.460Z,18.97
2019-01-29T18:25:40.145Z,18.60
2019-01-29T18:29:44.829Z,16.73
2019-01-29T18:33:49.504Z,17.43
2019-01-29T18:37:54.190Z,17.30
2019-01-29T18:41:58.877Z,20.07
2019-01-29T18:46:05.034Z,19.57
2019-01-29T18:50:15.061Z,17.87
2019-01-29T18:54:19.746Z,15.20
2019-01-29T18:58:24.423Z,17.83
2019-01-29T19:02:29.108Z,13.07
2019-01-29T19:06:33.795Z,12.80
2019-01-29T19:10:38.480Z,19.03
2019-01-29T19:14:43.235Z,19.20
2019-01-29T19:18:47.921Z,18.43
2019-01-29T19:22:52.603Z,20.10
2019-01-29T19:26:57.286Z,23.40
2019-01-29T19:31:01.980Z,17.90
2019-01-29T19:35:07.290Z,18.63
2019-01-29T19:39:11.975Z,14.23
2019-01-29T19:43:16.664Z,13.90
2019-01-29T19:47:21.350Z,13.87
2019-01-29T19:51:26.040Z,13.50
2019-01-29T19:55:30.719Z,14.60
2019-01-29T19:59:35.404Z,16.83
2019-01-29T20:03:40.094Z,14.80
2019-01-29T20:07:44.782Z,13.97
2019-01-29T20:11:49.473Z,19.20
2019-01-29T20:15:54.150Z,20.30
2019-01-29T20:19:58.848Z,20.27
2019-01-29T20:24:03.544Z,18.57
2019-01-29T20:28:08.234Z,14.47
2019-01-29T20:32:12.925Z,22.93
2019-01-29T20:36:17.608Z,17.00
2019-01-29T20:41:22.479Z,20.53
2019-01-29T20:45:26.060Z,28.73
2019-01-29T20:49:29.517Z,19.13
2019-01-29T20:53:32.974Z,19.53
2019-01-29T20:57:36.430Z,34.90
2019-01-29T21:01:39.885Z,21.23
2019-01-29T21:05:43.346Z,34.43
2019-01-29T21:09:46.809Z,46.63
2019-01-29T21:13:50.269Z,21.43
2019-01-29T21:17:53.714Z,15.53
2019-01-29T21:21:57.170Z,21.63
2019-01-29T21:26:00.635Z,19.87
2019-01-29T21:30:04.105Z,25.73
2019-01-29T21:34:07.628Z,17.30
2019-01-29T21:38:11.089Z,17.97
2019-01-29T21:42:14.529Z,19.40
2019-01-29T21:46:17.988Z,15.17
2019-01-29T21:50:21.445Z,18.43
2019-01-29T21:54:24.901Z,23.67
2019-01-29T21:58:28.354Z,27.33
2019-01-29T22:02:31.813Z,26.50
2019-01-29T22:06:35.275Z,23.90
2019-01-29T22:10:38.733Z,22.40
2019-01-29T22:14:42.189Z,20.00
2019-01-29T22:18:45.628Z,17.90
2019-01-29T22:22:49.084Z,17.23
2019-01-29T22:26:52.539Z,16.17
2019-01-29T22:30:55.997Z,16.43
2019-01-29T22:34:59.457Z,15.37
2019-01-29T22:39:03.374Z,16.87
2019-01-29T22:43:06.823Z,18.37
2019-01-29T22:47:10.281Z,16.73
2019-01-29T22:51:13.781Z,14.23
2019-01-29T22:55:18.277Z,14.47
2019-01-29T22:59:22.793Z,15.13
2019-01-29T23:03:27.634Z,16.23
2019-01-29T23:07:31.094Z,17.03
2019-01-29T23:11:34.555Z,17.20
2019-01-29T23:15:37.997Z,15.63
2019-01-29T23:19:42.519Z,12.23
2019-01-29T23:23:45.974Z,17.53
2019-01-29T23:27:49.431Z,14.90
2019-01-29T23:31:52.891Z,15.63
2019-01-29T23:35:56.336Z,11.30
2019-01-29T23:39:59.786Z,14.50
2019-01-29T23:44:04.308Z,13.07
2019-01-29T23:48:07.772Z,11.83
2019-01-29T23:52:11.235Z,13.30
2019-01-29T23:56:14.680Z,15.77
